Time;durP1;ratioP1;P1;durP2;ratioP2;P2;SDS_P1;SDS_P2;PMS_P1;PMS_P2;Temp;Humidity;BMP_temperature;BMP_pressure;BME280_temperature;BME280_humidity;BME280_pressure;Samples;Min_cycle;Max_cycle;Signal;HPM_P1;HPM_P2
2021/10/26 00:02:43;;;;;;;10.85;4.53;;;;;;;3.16;95.10;96691.91;5193595;57;20224;-73
2021/10/26 00:07:46;;;;;;;4.72;4.07;;;;;;;3.21;94.40;96686.00;5184986;57;20613;-72
2021/10/26 00:12:48;;;;;;;4.28;3.40;;;;;;;3.10;94.48;96686.09;5186764;57;20221;-72
2021/10/26 00:17:51;;;;;;;6.95;4.15;;;;;;;3.04;94.76;96689.66;5193105;57;20233;-72
2021/10/26 00:22:53;;;;;;;5.80;3.92;;;;;;;3.09;95.35;96703.66;5201654;57;20151;-72
2021/10/26 00:27:56;;;;;;;4.75;3.75;;;;;;;3.06;94.31;96695.50;5201470;57;20144;-72
2021/10/26 00:32:59;;;;;;;4.57;3.72;;;;;;;2.99;95.74;96701.03;5185174;57;20232;-72
2021/10/26 00:38:01;;;;;;;7.60;3.60;;;;;;;2.92;95.55;96703.84;5192476;57;20120;-72
2021/10/26 00:43:04;;;;;;;4.30;3.55;;;;;;;2.91;95.59;96694.88;5192562;57;20174;-72
2021/10/26 00:48:07;;;;;;;4.57;3.33;;;;;;;2.87;96.95;96703.06;5209812;56;20221;-72
2021/10/26 00:53:10;;;;;;;5.45;3.85;;;;;;;2.91;97.40;96700.31;5184276;57;20698;-72
2021/10/26 00:58:13;;;;;;;4.75;3.25;;;;;;;2.90;97.27;96696.03;5188414;57;20127;-72
2021/10/26 01:03:15;;;;;;;4.95;3.38;;;;;;;2.94;97.37;96698.75;5184231;57;20162;-72
2021/10/26 01:08:18;;;;;;;6.22;4.00;;;;;;;3.03;96.69;96691.63;5212423;56;20127;-72
2021/10/26 01:13:23;;;;;;;5.35;3.65;;;;;;;3.06;96.72;96690.03;5212861;56;20225;-71
2021/10/26 01:18:26;;;;;;;5.43;4.15;;;;;;;3.06;95.76;96695.50;5204750;56;20113;-72
2021/10/26 01:23:29;;;;;;;3.55;3.17;;;;;;;2.98;95.62;96694.03;5212691;56;20113;-71
2021/10/26 01:28:31;;;;;;;4.47;3.60;;;;;;;2.90;96.21;96690.56;5212623;56;20183;-72
2021/10/26 01:33:34;;;;;;;4.18;3.40;;;;;;;2.96;95.38;96688.97;5212789;56;20222;-72
2021/10/26 01:38:37;;;;;;;3.55;3.13;;;;;;;2.92;95.34;96688.22;5212365;56;20231;-72
2021/10/26 01:43:40;;;;;;;3.10;2.80;;;;;;;2.92;95.01;96694.44;5212649;56;20175;-72
2021/10/26 01:48:43;;;;;;;4.85;3.40;;;;;;;2.82;95.15;96689.88;5212454;56;20205;-72
2021/10/26 01:53:45;;;;;;;2.63;2.42;;;;;;;2.73;95.73;96680.59;5212448;56;20118;-72
2021/10/26 01:58:47;;;;;;;3.63;2.45;;;;;;;2.79;95.94;96693.41;5212593;56;20646;-72
2021/10/26 02:03:50;;;;;;;3.53;2.42;;;;;;;2.74;96.15;96693.03;5204012;56;20170;-72
2021/10/26 02:08:53;;;;;;;2.05;1.85;;;;;;;2.69;96.08;96707.88;5203637;56;20691;-72
2021/10/26 02:13:55;;;;;;;2.60;2.40;;;;;;;2.73;96.67;96703.19;5211892;56;20165;-72
2021/10/26 02:18:58;;;;;;;3.03;2.67;;;;;;;2.77;96.29;96695.75;5221174;56;20131;-72
2021/10/26 02:24:00;;;;;;;2.20;1.67;;;;;;;2.75;95.64;96703.56;5204047;56;20213;-73
2021/10/26 02:29:03;;;;;;;2.53;2.30;;;;;;;2.74;96.34;96712.13;5220697;56;20213;-72
2021/10/26 02:34:06;;;;;;;2.95;2.63;;;;;;;2.71;96.12;96710.97;5203599;56;20401;-72
2021/10/26 02:39:09;;;;;;;2.55;2.28;;;;;;;2.67;95.47;96710.25;5203636;56;20609;-73
2021/10/26 02:44:11;;;;;;;2.42;2.05;;;;;;;2.66;95.84;96708.72;5220632;56;20569;-71
2021/10/26 02:49:14;;;;;;;2.47;2.28;;;;;;;2.60;96.00;96704.84;5211504;56;20139;-72
2021/10/26 02:54:17;;;;;;;2.13;1.92;;;;;;;2.57;95.58;96715.78;5211104;56;20117;-72
2021/10/26 02:59:19;;;;;;;1.88;1.77;;;;;;;2.55;96.02;96708.00;5199612;56;20641;-72
2021/10/26 03:04:21;;;;;;;3.15;2.63;;;;;;;2.59;96.08;96705.25;5190702;57;20361;-73
2021/10/26 03:09:25;;;;;;;3.00;2.28;;;;;;;2.60;96.31;96715.75;5203205;56;20241;-72
2021/10/26 03:14:27;;;;;;;1.77;1.67;;;;;;;2.52;96.16;96706.06;5211656;56;20229;-72
2021/10/26 03:19:29;;;;;;;2.47;1.92;;;;;;;2.43;97.00;96718.59;5210990;56;20219;-71
2021/10/26 03:24:32;;;;;;;2.25;2.03;;;;;;;2.43;96.95;96735.75;5211299;56;20233;-72
2021/10/26 03:29:34;;;;;;;2.33;2.13;;;;;;;2.42;98.71;96723.28;5202934;56;20234;-72
2021/10/26 03:34:37;;;;;;;1.80;1.70;;;;;;;2.49;98.31;96725.19;5202603;56;20570;-72
2021/10/26 03:39:39;;;;;;;4.40;2.45;;;;;;;2.50;98.40;96735.69;5210700;56;20164;-72
2021/10/26 03:44:43;;;;;;;1.98;1.83;;;;;;;2.55;99.31;96735.28;5202490;56;20143;-71
2021/10/26 03:49:46;;;;;;;1.83;1.73;;;;;;;2.64;99.25;96735.63;5210483;56;20312;-72
2021/10/26 03:54:50;;;;;;;5.45;3.90;;;;;;;2.63;99.51;96728.59;5219624;56;20108;-72
2021/10/26 03:59:52;;;;;;;3.35;2.80;;;;;;;2.62;98.77;96732.47;5211012;56;20237;-72
2021/10/26 04:05:06;;;;;;;4.57;3.38;;;;;;;2.62;98.05;96748.09;5210352;56;20159;-72
2021/10/26 04:10:15;;;;;;;2.08;1.88;;;;;;;2.64;98.01;96743.03;5219702;56;20220;-72
2021/10/26 04:15:18;;;;;;;3.50;2.60;;;;;;;2.68;98.22;96735.56;5202089;56;20113;-72
2021/10/26 04:20:20;;;;;;;2.38;2.17;;;;;;;2.72;97.81;96761.66;5210142;56;20641;-71
2021/10/26 04:25:24;;;;;;;2.58;1.85;;;;;;;2.77;97.66;96769.44;5210733;56;20215;-73
2021/10/26 04:30:27;;;;;;;2.75;2.15;;;;;;;2.69;97.57;96757.00;5210251;56;20127;-72
2021/10/26 04:35:29;;;;;;;2.45;2.25;;;;;;;2.68;97.14;96754.69;5221309;56;20174;-71
2021/10/26 04:40:33;;;;;;;2.67;1.63;;;;;;;2.59;97.43;96770.72;5222493;56;20117;-72
2021/10/26 04:45:36;;;;;;;2.05;1.85;;;;;;;2.54;97.41;96771.13;5213281;56;20538;-73
2021/10/26 04:50:38;;;;;;;1.48;1.38;;;;;;;2.58;97.49;96769.19;5213563;56;20130;-73
2021/10/26 04:55:41;;;;;;;2.42;1.80;;;;;;;2.64;98.54;96778.47;5211180;56;20127;-72
2021/10/26 05:00:44;;;;;;;2.28;2.05;;;;;;;2.67;98.28;96778.44;5189880;57;20649;-72
2021/10/26 05:05:46;;;;;;;1.63;1.52;;;;;;;2.74;97.62;96785.81;5184372;57;20122;-72
2021/10/26 05:10:49;;;;;;;3.47;2.05;;;;;;;2.85;98.37;96791.97;5189773;57;20116;-72
2021/10/26 05:15:52;;;;;;;1.70;1.48;;;;;;;2.98;98.00;96784.88;5190444;56;20219;-72
2021/10/26 05:20:55;;;;;;;2.10;1.90;;;;;;;2.86;97.46;96794.31;5199290;57;20672;-72
2021/10/26 05:25:58;;;;;;;3.05;1.52;;;;;;;2.76;97.16;96797.88;5191801;57;20118;-72
2021/10/26 05:31:00;;;;;;;1.85;1.75;;;;;;;2.73;97.25;96795.97;5192029;57;20277;-72
2021/10/26 05:36:03;;;;;;;2.47;1.38;;;;;;;2.72;97.70;96802.59;5200907;57;20137;-73
2021/10/26 05:41:09;;;;;;;1.75;1.65;;;;;;;2.75;97.91;96799.06;5191814;57;20194;-72
2021/10/26 05:46:11;;;;;;;2.08;1.85;;;;;;;2.73;97.64;96811.56;5188923;57;20580;-71
2021/10/26 05:51:14;;;;;;;2.58;1.88;;;;;;;2.78;97.65;96825.53;5181651;56;20136;-71
2021/10/26 05:56:17;;;;;;;2.92;1.90;;;;;;;2.79;97.42;96818.91;5181614;57;20121;-71
2021/10/26 06:01:21;;;;;;;1.63;1.52;;;;;;;2.92;97.68;96828.19;5183523;57;20112;-71
2021/10/26 06:06:24;;;;;;;1.48;1.35;;;;;;;2.98;97.74;96844.16;5191920;57;20118;-71
2021/10/26 06:11:27;;;;;;;4.20;1.90;;;;;;;3.07;97.05;96839.03;5183488;57;20691;-71
2021/10/26 06:16:32;;;;;;;2.40;1.42;;;;;;;3.40;97.08;96843.84;5206072;56;20141;-71
2021/10/26 06:21:34;;;;;;;1.75;1.65;;;;;;;3.66;96.13;96850.66;5201019;56;20110;-71
2021/10/26 06:26:37;;;;;;;1.75;1.65;;;;;;;3.82;95.82;96851.69;5192798;56;20756;-71
2021/10/26 06:31:39;;;;;;;1.95;1.77;;;;;;;3.90;95.39;96852.38;5201224;56;20132;-72
2021/10/26 06:36:42;;;;;;;1.73;1.55;;;;;;;3.89;95.27;96859.78;5209578;56;20113;-71
2021/10/26 06:41:44;;;;;;;1.63;1.52;;;;;;;4.19;95.23;96870.03;5198719;56;20114;-71
2021/10/26 06:46:46;;;;;;;6.30;1.85;;;;;;;4.56;93.75;96875.50;5193947;56;20132;-72
2021/10/26 06:51:49;;;;;;;1.55;1.45;;;;;;;4.92;91.90;96884.81;5198384;56;20136;-72
2021/10/26 06:56:52;;;;;;;5.70;2.10;;;;;;;4.89;92.67;96895.78;5190818;56;20123;-71
2021/10/26 07:01:54;;;;;;;3.30;2.05;;;;;;;5.07;92.49;96905.34;5207040;56;20227;-72
2021/10/26 07:06:57;;;;;;;2.20;2.03;;;;;;;5.29;91.98;96900.31;5194727;56;20654;-72
2021/10/26 07:11:59;;;;;;;5.95;2.50;;;;;;;5.49;92.31;96912.19;5188863;56;20130;-71
2021/10/26 07:17:02;;;;;;;3.92;2.00;;;;;;;5.60;92.07;96907.31;5189944;56;20122;-71
2021/10/26 07:22:04;;;;;;;2.38;1.77;;;;;;;5.85;91.16;96908.91;5190827;56;20131;-71
2021/10/26 07:27:06;;;;;;;3.47;2.20;;;;;;;6.00;90.65;96910.22;5200719;56;20115;-70
2021/10/26 07:32:09;;;;;;;3.10;1.92;;;;;;;6.17;91.25;96914.63;5184449;56;20263;-70
2021/10/26 07:37:13;;;;;;;7.38;2.33;;;;;;;6.53;92.80;96927.28;5194052;56;20678;-70
2021/10/26 07:42:17;;;;;;;7.38;2.05;;;;;;;6.74;93.19;96928.09;5196310;57;20123;-70
2021/10/26 07:47:20;;;;;;;3.65;2.20;;;;;;;7.00;93.69;96933.44;5184907;56;20886;-69
2021/10/26 07:52:23;;;;;;;2.53;2.30;;;;;;;7.43;92.90;96927.03;5185456;57;20582;-70
2021/10/26 07:57:27;;;;;;;2.95;2.65;;;;;;;8.14;91.02;96937.91;5190679;56;20234;-70
2021/10/26 08:02:30;;;;;;;2.78;2.45;;;;;;;9.44;86.87;96938.31;5202154;56;20119;-69
2021/10/26 08:07:32;;;;;;;10.80;3.05;;;;;;;10.25;82.79;96944.03;5209522;56;20118;-69
2021/10/26 08:12:34;;;;;;;4.97;3.65;;;;;;;10.24;83.69;96943.28;5206525;56;20127;-70
2021/10/26 08:17:37;;;;;;;11.27;3.70;;;;;;;10.65;80.85;96939.53;5210207;56;20140;-69
2021/10/26 08:22:40;;;;;;;3.95;3.30;;;;;;;10.72;78.90;96944.81;5203669;56;20115;-69
2021/10/26 08:27:43;;;;;;;5.90;3.55;;;;;;;10.78;79.27;96941.03;5203129;56;20149;-70
2021/10/26 08:32:55;;;;;;;4.63;3.28;;;;;;;10.99;81.04;96942.25;5205106;56;20137;-69
2021/10/26 08:38:01;;;;;;;4.68;3.63;;;;;;;10.98;81.11;96946.25;5201527;56;20220;-69
2021/10/26 08:43:06;;;;;;;5.30;3.83;;;;;;;10.69;80.05;96948.47;5205424;56;20123;-70
2021/10/26 08:48:11;;;;;;;9.10;4.35;;;;;;;11.10;81.62;96947.41;5209803;56;20115;-70
2021/10/26 08:53:13;;;;;;;5.30;4.18;;;;;;;11.37;80.84;96942.06;5194738;56;20136;-69
2021/10/26 08:58:18;;;;;;;7.13;4.25;;;;;;;11.62;79.08;96952.19;5200255;56;20673;-70
2021/10/26 09:03:24;;;;;;;10.45;4.68;;;;;;;12.09;75.75;96963.81;5204857;56;20118;-70
2021/10/26 09:08:27;;;;;;;7.30;4.07;;;;;;;12.64;76.95;96957.16;5201306;56;20128;-69
2021/10/26 09:18:57;;;;;;;6.15;4.65;;;;;;;12.77;74.74;96946.72;5194054;56;20598;-69
2021/10/26 09:24:02;;;;;;;6.30;4.30;;;;;;;13.17;74.85;96951.34;5196147;56;20607;-69
2021/10/26 09:29:05;;;;;;;7.13;4.45;;;;;;;13.30;74.24;96949.16;5199065;56;20118;-69
2021/10/26 09:34:16;;;;;;;7.25;4.07;;;;;;;13.18;73.87;96952.88;5208675;56;20594;-69
2021/10/26 09:39:21;;;;;;;9.65;5.32;;;;;;;13.26;72.55;96934.69;5204754;56;20144;-70
2021/10/26 09:44:28;;;;;;;10.27;5.65;;;;;;;13.13;72.48;96947.97;5207064;56;20175;-69
2021/10/26 09:49:36;;;;;;;7.93;5.13;;;;;;;13.97;71.20;96943.28;5194084;56;20128;-70
2021/10/26 09:55:00;;;;;;;7.68;5.32;;;;;;;13.48;75.65;96938.78;5183806;56;20702;-69
2021/10/26 10:00:06;;;;;;;10.68;6.03;;;;;;;13.59;74.80;96947.41;5192563;56;20123;-70
2021/10/26 10:05:24;;;;;;;7.88;5.22;;;;;;;13.49;74.41;96954.22;5198991;56;20122;-70
2021/10/26 10:10:39;;;;;;;8.18;5.20;;;;;;;13.01;75.74;96962.72;5208686;56;20912;-70
2021/10/26 10:15:49;;;;;;;6.18;5.40;;;;;;;13.03;78.37;96952.69;5203979;56;20278;-70
2021/10/26 10:20:53;;;;;;;6.70;4.95;;;;;;;13.32;77.57;96946.72;5198756;56;20136;-70
2021/10/26 10:25:57;;;;;;;9.82;5.65;;;;;;;13.68;77.13;96941.81;5194168;56;20115;-69
2021/10/26 10:31:02;;;;;;;7.68;5.20;;;;;;;14.17;75.59;96930.38;5210881;56;20138;-69
2021/10/26 10:36:07;;;;;;;9.00;5.53;;;;;;;14.35;71.94;96927.53;5199093;56;20109;-69
2021/10/26 10:41:24;;;;;;;7.35;5.10;;;;;;;14.20;73.05;96934.22;5201003;56;20115;-70
2021/10/26 10:46:44;;;;;;;7.63;5.05;;;;;;;14.25;72.29;96926.00;5200023;56;20123;-70
2021/10/26 10:52:00;;;;;;;6.43;4.20;;;;;;;14.16;73.27;96930.81;5203256;56;20706;-70
2021/10/26 10:57:25;;;;;;;9.02;4.97;;;;;;;14.33;71.97;96932.78;5208046;56;20108;-70
2021/10/26 11:02:36;;;;;;;7.80;5.28;;;;;;;14.52;72.86;96924.34;5180157;57;20140;-70
2021/10/26 11:07:41;;;;;;;7.55;5.15;;;;;;;15.02;71.86;96926.09;5198166;56;20683;-70
2021/10/26 11:12:45;;;;;;;7.03;5.30;;;;;;;14.96;69.95;96930.78;5202959;56;20123;-70
2021/10/26 11:17:50;;;;;;;6.60;4.85;;;;;;;16.06;66.73;96926.41;5205373;56;20864;-70
2021/10/26 11:23:04;;;;;;;11.43;5.60;;;;;;;15.41;68.55;96932.38;5207068;56;20123;-70
2021/10/26 11:28:12;;;;;;;7.28;5.03;;;;;;;15.60;67.38;96931.00;5207825;56;20133;-70
2021/10/26 11:33:15;;;;;;;9.13;5.18;;;;;;;14.74;69.86;96947.03;5201916;56;20132;-70
2021/10/26 11:38:31;;;;;;;7.00;5.20;;;;;;;14.36;71.90;96933.81;5205232;56;20154;-70
2021/10/26 11:43:45;;;;;;;9.50;4.85;;;;;;;15.02;70.12;96931.66;5211460;56;20122;-70
2021/10/26 11:49:09;;;;;;;6.63;5.20;;;;;;;15.63;67.83;96933.56;5200346;56;20817;-70
2021/10/26 11:54:21;;;;;;;8.85;5.22;;;;;;;16.30;66.22;96920.69;5204629;56;20131;-70
2021/10/26 11:59:26;;;;;;;7.07;5.50;;;;;;;16.35;65.49;96909.59;5200588;56;20778;-70
2021/10/26 12:04:59;;;;;;;5.57;4.28;;;;;;;16.52;65.04;96912.66;5205217;56;20211;-70
2021/10/26 12:10:08;;;;;;;6.75;4.45;;;;;;;17.11;61.70;96910.31;5207302;56;20633;-71
2021/10/26 12:15:11;;;;;;;6.13;4.93;;;;;;;15.85;64.85;96908.09;5211815;56;20136;-74
2021/10/26 12:20:20;;;;;;;6.63;4.45;;;;;;;15.32;67.79;96899.06;5203548;56;20140;-70
2021/10/26 12:25:29;;;;;;;7.32;4.22;;;;;;;14.89;69.48;96908.88;5200727;57;20123;-70
2021/10/26 12:30:41;;;;;;;6.10;4.18;;;;;;;14.87;69.25;96909.38;5204835;56;20136;-70
2021/10/26 12:35:57;;;;;;;5.70;3.75;;;;;;;15.21;68.71;96904.44;5202643;56;20755;-70
2021/10/26 12:41:08;;;;;;;12.20;4.93;;;;;;;14.95;70.37;96904.97;5200891;56;20128;-70
2021/10/26 12:46:29;;;;;;;4.72;3.70;;;;;;;14.81;69.89;96902.91;5204331;56;20114;-70
2021/10/26 12:51:31;;;;;;;4.57;4.13;;;;;;;14.47;71.72;96906.28;5199820;56;20119;-70
2021/10/26 12:56:34;;;;;;;4.97;3.28;;;;;;;14.64;70.98;96903.84;5206052;56;20543;-71
2021/10/26 13:01:40;;;;;;;5.28;3.03;;;;;;;14.30;71.95;96896.81;5206857;56;20123;-72
2021/10/26 13:07:01;;;;;;;6.90;4.07;;;;;;;13.97;73.86;96896.03;5203871;56;20127;-71
2021/10/26 13:12:30;;;;;;;6.38;3.65;;;;;;;14.46;72.84;96892.84;5198514;56;20131;-70
2021/10/26 13:17:35;;;;;;;6.13;3.88;;;;;;;15.52;68.93;96880.47;5199820;57;20215;-70
2021/10/26 13:22:55;;;;;;;8.77;3.92;;;;;;;16.73;65.21;96888.31;5200644;57;20122;-71
2021/10/26 13:28:00;;;;;;;4.35;3.50;;;;;;;17.60;60.56;96893.28;5199633;56;20650;-71
2021/10/26 13:33:02;;;;;;;5.95;3.67;;;;;;;17.13;58.30;96889.03;5192706;56;20659;-71
2021/10/26 13:38:05;;;;;;;3.90;2.70;;;;;;;16.41;60.03;96882.56;5191107;57;20604;-71
2021/10/26 13:43:12;;;;;;;3.83;3.00;;;;;;;16.24;60.33;96883.56;5212695;56;20132;-71
2021/10/26 13:48:16;;;;;;;3.20;2.38;;;;;;;15.62;61.86;96889.47;5207240;56;20122;-71
2021/10/26 13:53:19;;;;;;;6.28;2.45;;;;;;;15.65;62.60;96886.50;5195167;56;20128;-70
2021/10/26 13:58:22;;;;;;;3.33;2.78;;;;;;;15.22;64.40;96884.44;5204669;56;20647;-71
2021/10/26 14:03:24;;;;;;;3.70;2.50;;;;;;;14.99;63.86;96890.88;5193777;56;20168;-71
2021/10/26 14:08:27;;;;;;;7.78;2.38;;;;;;;15.63;64.21;96888.22;5191069;56;20127;-71
2021/10/26 14:13:31;;;;;;;3.88;2.65;;;;;;;15.63;62.67;96893.78;5194911;56;20684;-71
2021/10/26 14:18:34;;;;;;;4.15;3.42;;;;;;;15.17;65.25;96899.06;5202758;56;20108;-71
2021/10/26 14:23:37;;;;;;;3.78;3.17;;;;;;;15.10;65.88;96896.66;5192761;56;20208;-70
2021/10/26 14:28:40;;;;;;;7.25;3.67;;;;;;;15.07;68.73;96898.38;5183384;57;20101;-72
2021/10/26 14:33:43;;;;;;;7.03;4.25;;;;;;;14.59;72.19;96901.69;5192079;57;20136;-72
2021/10/26 14:38:55;;;;;;;7.45;4.45;;;;;;;14.54;73.56;96916.28;5183708;56;20602;-71
2021/10/26 14:59:42;;;;;;;10.93;4.95;;;;;;;13.23;89.16;96938.41;5201364;56;20126;-72
2021/10/26 15:04:45;;;;;;;8.15;4.75;;;;;;;13.40;88.37;96939.59;5187136;57;20132;-72
2021/10/26 15:09:51;;;;;;;8.73;4.72;;;;;;;13.44;89.10;96940.97;5166183;57;20124;-72
2021/10/26 15:14:57;;;;;;;6.78;4.80;;;;;;;13.47;89.82;96936.50;5193850;56;20955;-72
2021/10/26 15:20:05;;;;;;;9.18;5.25;;;;;;;13.47;92.08;96937.28;5198042;57;20538;-72
2021/10/26 15:35:44;;;;;;;6.22;4.55;;;;;;;12.96;93.42;96934.38;5183728;56;20127;-71
2021/10/26 15:40:47;;;;;;;7.07;4.43;;;;;;;12.83;93.68;96936.53;5195197;56;20130;-71
2021/10/26 15:45:50;;;;;;;6.10;5.00;;;;;;;12.69;95.00;96939.91;5201439;56;20219;-71
2021/10/26 15:50:53;;;;;;;8.02;4.78;;;;;;;12.61;96.02;96943.44;5191715;56;20637;-72
2021/10/26 15:55:55;;;;;;;8.75;4.97;;;;;;;12.51;96.47;96956.53;5186758;56;20640;-71
2021/10/26 16:00:58;;;;;;;7.20;4.90;;;;;;;12.34;98.10;96965.56;5191623;56;20729;-71
2021/10/26 16:06:01;;;;;;;4.60;4.00;;;;;;;12.21;98.91;96969.22;5197021;56;20198;-72
2021/10/26 16:11:09;;;;;;;8.43;5.60;;;;;;;12.16;99.93;96969.06;5185050;57;20144;-71
2021/10/26 16:16:22;;;;;;;5.90;4.82;;;;;;;12.08;99.63;96965.81;5181015;56;20238;-72
2021/10/26 16:21:24;;;;;;;8.88;5.40;;;;;;;12.03;100.00;96968.41;5176463;57;20738;-71
2021/10/26 16:26:27;;;;;;;8.00;4.95;;;;;;;12.05;99.69;96969.47;5182009;56;20233;-71
2021/10/26 16:31:31;;;;;;;7.75;5.00;;;;;;;11.93;100.00;96981.44;5181612;57;20133;-72
2021/10/26 16:36:33;;;;;;;7.50;4.60;;;;;;;11.81;100.00;96989.84;5185345;56;20114;-71
2021/10/26 16:41:36;;;;;;;6.50;4.93;;;;;;;11.74;100.00;96993.66;5177862;56;20233;-71
2021/10/26 16:46:44;;;;;;;5.72;5.07;;;;;;;11.62;100.00;97005.56;5175013;57;20120;-71
2021/10/26 16:51:47;;;;;;;6.85;4.65;;;;;;;11.53;100.00;97013.81;5191582;57;20123;-71
2021/10/26 16:56:49;;;;;;;7.25;4.53;;;;;;;11.50;100.00;97011.94;5185986;56;20570;-71
2021/10/26 17:02:00;;;;;;;8.70;5.10;;;;;;;11.52;100.00;97015.03;5187524;56;20208;-71
2021/10/26 17:07:04;;;;;;;5.85;4.60;;;;;;;11.38;100.00;97019.09;5193465;56;20172;-71
2021/10/26 17:12:10;;;;;;;11.10;4.78;;;;;;;11.15;100.00;97021.53;5200907;57;20229;-71
2021/10/26 17:17:13;;;;;;;7.05;4.57;;;;;;;10.89;100.00;97040.19;5190852;57;20539;-71
2021/10/26 17:22:21;;;;;;;7.75;4.57;;;;;;;10.74;100.00;97045.41;5194217;56;20656;-71
2021/10/26 17:27:24;;;;;;;7.18;5.20;;;;;;;10.72;100.00;97066.41;5187071;46;20730;-71
2021/10/26 17:32:26;;;;;;;7.75;5.22;;;;;;;10.66;100.00;97059.91;5167143;57;20133;-71
2021/10/26 17:37:31;;;;;;;6.72;5.07;;;;;;;10.64;100.00;97068.66;5155437;57;20149;-70
2021/10/26 17:42:34;;;;;;;8.15;5.13;;;;;;;10.70;100.00;97066.88;5166961;57;20221;-70
2021/10/26 17:47:36;;;;;;;6.10;4.90;;;;;;;10.75;100.00;97077.38;5150609;57;20134;-71
2021/10/26 17:52:40;;;;;;;9.10;5.75;;;;;;;10.78;100.00;97084.00;5160096;57;20150;-70
2021/10/26 17:57:51;;;;;;;6.85;4.75;;;;;;;10.80;100.00;97082.34;5164047;57;20222;-69
2021/10/26 18:02:54;;;;;;;8.18;5.35;;;;;;;10.81;100.00;97094.16;5152402;57;20128;-72
2021/10/26 18:07:59;;;;;;;7.55;5.30;;;;;;;10.76;100.00;97089.22;5159135;57;20230;-71
2021/10/26 18:13:03;;;;;;;8.85;4.75;;;;;;;10.79;100.00;97091.84;5153186;57;20141;-72
2021/10/26 18:18:06;;;;;;;7.93;5.07;;;;;;;10.86;100.00;97093.59;5161257;57;20128;-70
2021/10/26 18:23:09;;;;;;;7.75;5.05;;;;;;;10.74;100.00;97097.94;5161934;57;20132;-70
2021/10/26 18:28:12;;;;;;;10.95;5.50;;;;;;;10.70;100.00;97094.53;5158370;57;20123;-70
2021/10/26 18:38:52;;;;;;;6.40;4.72;;;;;;;10.60;100.00;97090.13;5557389;46;20133;-70
2021/10/26 18:44:37;;;;;;;6.22;4.85;;;;;;;10.48;100.00;97099.19;5218030;56;20131;-70
2021/10/26 18:49:27;;;;;;;6.32;5.13;;;;;;;10.38;100.00;97094.00;5219395;56;20126;-70
2021/10/26 18:54:29;;;;;;;6.18;4.65;;;;;;;10.21;100.00;97098.84;5211528;56;20122;-69
2021/10/26 18:59:35;;;;;;;6.60;5.10;;;;;;;10.07;100.00;97088.97;5227897;56;20239;-70
2021/10/26 19:04:38;;;;;;;7.10;4.80;;;;;;;9.84;100.00;97077.44;5220342;56;20238;-70
2021/10/26 19:09:40;;;;;;;9.55;4.93;;;;;;;9.67;100.00;97064.94;5220550;56;20659;-70
2021/10/26 19:14:44;;;;;;;6.45;4.97;;;;;;;9.35;100.00;97068.59;5221278;56;20126;-70
2021/10/26 19:19:47;;;;;;;5.45;4.68;;;;;;;9.13;100.00;97073.91;5220869;56;20100;-70
2021/10/26 19:24:50;;;;;;;6.95;4.88;;;;;;;9.06;100.00;97070.56;5220896;56;20127;-70
2021/10/26 19:29:57;;;;;;;5.50;4.90;;;;;;;8.87;100.00;97091.53;5220797;56;20140;-70
2021/10/26 19:35:00;;;;;;;5.80;5.10;;;;;;;8.68;100.00;97088.88;5220809;56;20230;-70
2021/10/26 19:40:05;;;;;;;8.40;5.15;;;;;;;8.54;100.00;97088.00;5220338;56;20131;-69
2021/10/26 19:45:08;;;;;;;8.43;5.38;;;;;;;8.39;100.00;97089.53;5219801;56;20124;-70
2021/10/26 19:50:11;;;;;;;7.78;5.07;;;;;;;8.28;100.00;97113.78;5219521;56;20757;-70
2021/10/26 19:55:14;;;;;;;9.07;5.13;;;;;;;8.11;100.00;97105.91;5217116;56;20149;-70
2021/10/26 20:00:16;;;;;;;8.60;5.20;;;;;;;8.02;100.00;97106.50;5224625;56;20113;-71
2021/10/26 20:05:18;;;;;;;5.03;4.43;;;;;;;8.01;100.00;97109.66;5220892;56;20122;-70
2021/10/26 20:10:21;;;;;;;4.22;3.75;;;;;;;7.91;100.00;97108.69;5220466;56;20737;-70
2021/10/26 20:15:23;;;;;;;4.43;3.17;;;;;;;7.83;100.00;97118.28;5219372;56;20135;-70
2021/10/26 20:20:35;;;;;;;5.03;3.50;;;;;;;7.67;100.00;97121.75;5221576;56;20127;-70
2021/10/26 20:25:40;;;;;;;4.32;3.60;;;;;;;7.67;100.00;97115.47;5220238;56;20188;-69
2021/10/26 20:30:44;;;;;;;5.75;3.97;;;;;;;7.63;100.00;97117.53;5216386;56;20936;-69
2021/10/26 20:35:48;;;;;;;3.70;3.05;;;;;;;7.51;100.00;97120.91;5221295;56;20654;-69
2021/10/26 20:40:50;;;;;;;4.43;3.65;;;;;;;7.43;100.00;97125.00;5219472;56;20122;-70
2021/10/26 20:45:54;;;;;;;4.65;3.75;;;;;;;7.35;100.00;97121.59;5220607;56;20127;-70
2021/10/26 20:51:10;;;;;;;5.35;4.28;;;;;;;7.12;100.00;97140.88;5222586;56;20122;-69
2021/10/26 20:56:12;;;;;;;4.93;3.60;;;;;;;7.06;100.00;97148.03;5221520;56;20149;-69
2021/10/26 21:01:15;;;;;;;2.55;2.35;;;;;;;7.00;100.00;97146.97;5221922;56;20131;-70
2021/10/26 21:06:17;;;;;;;4.43;2.85;;;;;;;7.01;100.00;97154.78;5222789;56;20131;-69
2021/10/26 21:11:19;;;;;;;3.63;2.63;;;;;;;6.81;100.00;97144.94;5217150;56;20126;-69
2021/10/26 21:16:23;;;;;;;3.28;2.75;;;;;;;6.68;100.00;97149.47;5219325;56;20135;-70
2021/10/26 21:21:25;;;;;;;3.25;2.78;;;;;;;6.61;100.00;97153.09;5221787;56;20118;-69
2021/10/26 21:26:28;;;;;;;3.42;3.13;;;;;;;6.60;100.00;97156.25;5221050;56;20118;-69
2021/10/26 21:31:32;;;;;;;3.90;3.22;;;;;;;6.53;100.00;97153.63;5221667;56;20157;-69
2021/10/26 21:36:51;;;;;;;4.50;3.15;;;;;;;6.51;100.00;97157.56;5220982;56;20167;-69
2021/10/26 21:41:53;;;;;;;5.97;3.80;;;;;;;6.33;100.00;97159.78;5221486;56;20274;-70
2021/10/26 21:46:55;;;;;;;4.45;3.55;;;;;;;6.30;100.00;97155.13;5220660;56;20127;-70
2021/10/26 21:51:59;;;;;;;3.78;3.33;;;;;;;6.24;100.00;97159.50;5217989;56;20122;-70
2021/10/26 21:57:03;;;;;;;2.83;2.53;;;;;;;6.20;100.00;97147.03;5215427;56;20113;-69
2021/10/26 22:02:06;;;;;;;2.70;2.25;;;;;;;6.10;100.00;97142.47;5221022;56;20113;-70
2021/10/26 22:07:08;;;;;;;2.17;1.98;;;;;;;6.07;100.00;97146.81;5219959;56;20601;-69
2021/10/26 22:12:11;;;;;;;4.03;2.60;;;;;;;6.09;100.00;97144.44;5219929;56;20149;-70
2021/10/26 22:17:13;;;;;;;2.33;2.15;;;;;;;6.08;100.00;97150.34;5219177;56;20603;-69
2021/10/26 22:22:22;;;;;;;2.30;2.10;;;;;;;6.01;100.00;97144.97;5220351;56;20127;-70
2021/10/26 22:27:25;;;;;;;;;;;;;;;5.94;100.00;97140.34;5219986;56;20131;-70
2021/10/26 22:32:27;;;;;;;2.70;2.10;;;;;;;5.86;100.00;97140.84;5220546;56;19975;-70
2021/10/26 22:37:30;;;;;;;1.83;1.73;;;;;;;5.88;100.00;97143.97;5211105;56;20690;-69
2021/10/26 22:42:32;;;;;;;2.20;2.00;;;;;;;5.86;100.00;97143.59;5220836;56;20144;-70
2021/10/26 22:47:35;;;;;;;3.65;2.58;;;;;;;5.80;100.00;97141.28;5211273;56;20547;-70
2021/10/26 22:52:37;;;;;;;2.88;2.28;;;;;;;5.61;100.00;97136.41;5220426;56;20175;-70
2021/10/26 22:57:39;;;;;;;3.13;2.83;;;;;;;5.58;100.00;97139.97;5220034;56;20698;-70
2021/10/26 23:02:44;;;;;;;4.13;3.30;;;;;;;5.47;100.00;97136.56;5220578;56;20114;-70
2021/10/26 23:07:46;;;;;;;3.92;3.38;;;;;;;5.42;100.00;97131.53;5219861;56;20135;-70
2021/10/26 23:12:49;;;;;;;5.55;3.85;;;;;;;5.47;100.00;97136.56;5220127;56;20114;-69
2021/10/26 23:17:51;;;;;;;5.82;3.25;;;;;;;5.47;100.00;97135.81;5227744;56;20170;-69
2021/10/26 23:22:54;;;;;;;6.85;2.90;;;;;;;5.40;100.00;97128.44;5239097;56;20108;-70
2021/10/26 23:27:56;;;;;;;5.50;3.47;;;;;;;5.48;100.00;97140.06;5240688;56;20125;-69
2021/10/26 23:32:59;;;;;;;4.40;3.72;;;;;;;5.38;100.00;97124.56;5240468;56;20143;-70
2021/10/26 23:38:01;;;;;;;4.78;3.42;;;;;;;5.25;100.00;97135.25;5240033;56;20147;-70
2021/10/26 23:43:03;;;;;;;6.45;3.65;;;;;;;5.21;100.00;97126.28;5222095;56;20131;-70
2021/10/26 23:48:13;;;;;;;6.35;3.83;;;;;;;5.24;100.00;97128.22;5219609;56;20136;-69
2021/10/26 23:53:15;;;;;;;;;;;;;;;5.15;100.00;97133.41;5210815;56;20118;-69
2021/10/26 23:58:18;;;;;;;6.80;3.17;;;;;;;5.19;100.00;97123.19;5218640;56;19982;-69
